CPA612 VCBI-VHHH
Flight info
| Callsign | CPA612 |
|---|---|
| Flight time | 4h 45m |
| Altitude | 39000 |
| Route | DORT1D/22 DORTA1D ESPAP P762 LALIT M502 BKK W1 KRT B460 SAV A202 VILAO/K0861F390 A202 ASSAD/K0859S1190 A202 SAMAS/K0743S0630 A202 SIKOU/N0461F390 V571 CANTO |
| Aircraft | A333/H-SDE3GHIJ2J3J5M1RVWXY/LB2D1 |
Departure
| Time | 2026-04-24 11:23 |
|---|---|
| Airport | Bandaranaike International Colombo Airport (VCBI) |
Arrival
| Time | 2026-04-24 16:09 |
|---|---|
| Airport | Hong Kong International Airport (VHHH) |
| Time | Latitude | Longitude | Altitude | Speed | Heading |
|---|---|---|---|---|---|
| 2026-04-24 11:00 | 7.17695 | 79.88477 | 31 ft | 0 kts | 217° |
| 2026-04-24 11:00 | 7.17702 | 79.88483 | 31 ft | 0 kts | 217° |
| 2026-04-24 11:15 | 7.17703 | 79.88484 | 31 ft | 2 kts | 217° |
| 2026-04-24 11:15 | 7.17725 | 79.88499 | 30 ft | 4 kts | 210° |
| 2026-04-24 11:15 | 7.17749 | 79.88512 | 29 ft | 4 kts | 211° |
| 2026-04-24 11:16 | 7.17768 | 79.88528 | 28 ft | 4 kts | 253° |
| 2026-04-24 11:16 | 7.17770 | 79.88551 | 29 ft | 4 kts | 283° |
| 2026-04-24 11:16 | 7.17758 | 79.88573 | 29 ft | 4 kts | 317° |
| 2026-04-24 11:16 | 7.17745 | 79.88585 | 29 ft | 1 kts | 307° |
| 2026-04-24 11:19 | 7.17756 | 79.88571 | 29 ft | 6 kts | 307° |
| 2026-04-24 11:19 | 7.17797 | 79.88517 | 29 ft | 13 kts | 307° |
| 2026-04-24 11:19 | 7.17873 | 79.88441 | 31 ft | 16 kts | 349° |
| 2026-04-24 11:19 | 7.17984 | 79.88501 | 31 ft | 22 kts | 37° |
| 2026-04-24 11:20 | 7.18119 | 79.88605 | 31 ft | 27 kts | 37° |
| 2026-04-24 11:20 | 7.18284 | 79.88730 | 31 ft | 32 kts | 37° |
| 2026-04-24 11:20 | 7.18472 | 79.88874 | 31 ft | 36 kts | 37° |
| 2026-04-24 11:20 | 7.18677 | 79.89031 | 31 ft | 38 kts | 37° |
| 2026-04-24 11:21 | 7.18898 | 79.89200 | 31 ft | 41 kts | 37° |
| 2026-04-24 11:21 | 7.19118 | 79.89368 | 31 ft | 30 kts | 37° |
| 2026-04-24 11:21 | 7.19233 | 79.89378 | 30 ft | 18 kts | 309° |
| 2026-04-24 11:21 | 7.19276 | 79.89271 | 31 ft | 17 kts | 250° |
| 2026-04-24 11:22 | 7.19219 | 79.89217 | 31 ft | 0 kts | 218° |
| 2026-04-24 11:22 | 7.19218 | 79.89217 | 31 ft | 0 kts | 218° |
| 2026-04-24 11:22 | 7.19133 | 79.89152 | 32 ft | 42 kts | 217° |
| 2026-04-24 11:22 | 7.18741 | 79.88853 | 33 ft | 98 kts | 217° |
| 2026-04-24 11:23 | 7.18055 | 79.88329 | 33 ft | 148 kts | 217° |
| 2026-04-24 11:23 | 7.17154 | 79.87638 | 360 ft | 169 kts | 217° |
| 2026-04-24 11:23 | 7.16210 | 79.86974 | 1009 ft | 163 kts | 202° |
| 2026-04-24 11:23 | 7.15116 | 79.87000 | 1565 ft | 162 kts | 160° |
| 2026-04-24 11:24 | 7.14061 | 79.87547 | 1934 ft | 182 kts | 152° |
| 2026-04-24 11:24 | 7.12889 | 79.88239 | 2241 ft | 207 kts | 151° |
| 2026-04-24 11:24 | 7.11557 | 79.88997 | 2546 ft | 231 kts | 152° |
| 2026-04-24 11:24 | 7.10140 | 79.89848 | 2980 ft | 243 kts | 141° |
| 2026-04-24 11:25 | 7.09208 | 79.91278 | 3468 ft | 253 kts | 104° |
| 2026-04-24 11:25 | 7.09289 | 79.93058 | 4014 ft | 263 kts | 69° |
| 2026-04-24 11:25 | 7.10405 | 79.94514 | 4652 ft | 269 kts | 35° |
| 2026-04-24 11:25 | 7.12054 | 79.95391 | 5418 ft | 268 kts | 29° |
| 2026-04-24 11:26 | 7.13583 | 79.96445 | 6142 ft | 268 kts | 44° |
| 2026-04-24 11:26 | 7.14708 | 79.97946 | 6760 ft | 272 kts | 65° |
| 2026-04-24 11:26 | 7.15383 | 79.99733 | 7455 ft | 274 kts | 72° |
| 2026-04-24 11:26 | 7.15929 | 80.01584 | 8134 ft | 278 kts | 74° |
| 2026-04-24 11:27 | 7.16459 | 80.03480 | 8791 ft | 284 kts | 75° |
| 2026-04-24 11:27 | 7.16991 | 80.05403 | 9525 ft | 287 kts | 75° |
| 2026-04-24 11:27 | 7.17531 | 80.07354 | 10107 ft | 295 kts | 75° |
| 2026-04-24 11:27 | 7.18102 | 80.09410 | 10406 ft | 315 kts | 75° |
| 2026-04-24 11:28 | 7.18709 | 80.11596 | 10659 ft | 333 kts | 75° |
| 2026-04-24 11:28 | 7.19349 | 80.13902 | 10884 ft | 350 kts | 75° |
| 2026-04-24 11:28 | 7.20019 | 80.16315 | 11167 ft | 364 kts | 75° |
| 2026-04-24 11:28 | 7.20703 | 80.18782 | 11759 ft | 367 kts | 74° |
| 2026-04-24 11:29 | 7.21387 | 80.21239 | 12306 ft | 371 kts | 75° |
| 2026-04-24 11:29 | 7.22086 | 80.23756 | 12847 ft | 376 kts | 75° |
| 2026-04-24 11:29 | 7.22792 | 80.26298 | 13446 ft | 379 kts | 75° |
| 2026-04-24 11:29 | 7.23506 | 80.28870 | 13901 ft | 384 kts | 75° |
| 2026-04-24 11:30 | 7.24225 | 80.31460 | 14451 ft | 385 kts | 75° |
| 2026-04-24 11:30 | 7.24948 | 80.34065 | 14967 ft | 388 kts | 75° |
| 2026-04-24 11:30 | 7.25677 | 80.36695 | 15446 ft | 391 kts | 75° |
| 2026-04-24 11:30 | 7.26409 | 80.39336 | 15964 ft | 393 kts | 75° |
| 2026-04-24 11:31 | 7.27148 | 80.42001 | 16413 ft | 397 kts | 75° |
| 2026-04-24 11:31 | 7.27959 | 80.44665 | 16910 ft | 399 kts | 71° |
| 2026-04-24 11:31 | 7.28885 | 80.47314 | 17369 ft | 403 kts | 70° |
| 2026-04-24 11:31 | 7.29838 | 80.49974 | 17833 ft | 405 kts | 70° |
| 2026-04-24 11:32 | 7.30798 | 80.52651 | 18254 ft | 408 kts | 70° |
| 2026-04-24 11:32 | 7.31763 | 80.55346 | 18655 ft | 409 kts | 71° |
| 2026-04-24 11:32 | 7.32726 | 80.58044 | 19101 ft | 410 kts | 70° |
| 2026-04-24 11:32 | 7.33692 | 80.60753 | 19466 ft | 413 kts | 70° |
| 2026-04-24 11:33 | 7.34663 | 80.63481 | 19839 ft | 415 kts | 70° |
| 2026-04-24 11:33 | 7.35639 | 80.66222 | 20209 ft | 417 kts | 70° |
| 2026-04-24 11:33 | 7.36621 | 80.68982 | 20597 ft | 419 kts | 70° |
| 2026-04-24 11:33 | 7.37607 | 80.71751 | 20976 ft | 421 kts | 70° |
| 2026-04-24 11:34 | 7.38597 | 80.74535 | 21335 ft | 423 kts | 70° |
| 2026-04-24 11:34 | 7.39593 | 80.77335 | 21686 ft | 426 kts | 70° |
| 2026-04-24 11:34 | 7.40593 | 80.80149 | 22038 ft | 428 kts | 70° |
| 2026-04-24 11:34 | 7.41598 | 80.82975 | 22410 ft | 430 kts | 70° |
| 2026-04-24 11:35 | 7.42609 | 80.85820 | 22771 ft | 432 kts | 70° |
| 2026-04-24 11:35 | 7.43623 | 80.88675 | 23113 ft | 434 kts | 70° |
| 2026-04-24 11:35 | 7.44642 | 80.91543 | 23464 ft | 436 kts | 70° |
| 2026-04-24 11:35 | 7.45665 | 80.94424 | 23725 ft | 437 kts | 70° |
| 2026-04-24 11:36 | 7.46690 | 80.97313 | 23798 ft | 438 kts | 70° |
| 2026-04-24 11:36 | 7.47717 | 81.00206 | 23834 ft | 439 kts | 70° |
| 2026-04-24 11:36 | 7.48747 | 81.03110 | 24060 ft | 441 kts | 70° |
| 2026-04-24 11:36 | 7.49782 | 81.06028 | 24372 ft | 443 kts | 70° |
| 2026-04-24 11:37 | 7.50820 | 81.08955 | 24675 ft | 445 kts | 70° |
| 2026-04-24 11:37 | 7.51887 | 81.11886 | 24942 ft | 447 kts | 70° |
| 2026-04-24 11:37 | 7.52616 | 81.13832 | 25137 ft | 448 kts | 69° |
| 2026-04-24 11:37 | 7.53734 | 81.16774 | 25447 ft | 450 kts | 69° |
| 2026-04-24 11:38 | 7.54861 | 81.19723 | 25745 ft | 452 kts | 69° |
| 2026-04-24 11:38 | 7.55990 | 81.22686 | 26043 ft | 454 kts | 70° |
| 2026-04-24 11:38 | 7.57504 | 81.26677 | 26448 ft | 457 kts | 70° |
| 2026-04-24 11:38 | 7.58254 | 81.28663 | 26636 ft | 458 kts | 70° |
| 2026-04-24 11:39 | 7.59389 | 81.31673 | 26893 ft | 461 kts | 70° |
| 2026-04-24 11:39 | 7.60531 | 81.34706 | 27177 ft | 464 kts | 70° |
| 2026-04-24 11:39 | 7.61675 | 81.37750 | 27462 ft | 466 kts | 70° |
| 2026-04-24 11:39 | 7.62826 | 81.40812 | 27758 ft | 468 kts | 70° |
| 2026-04-24 11:40 | 7.63980 | 81.43882 | 28059 ft | 470 kts | 70° |
| 2026-04-24 11:40 | 7.65140 | 81.46969 | 28346 ft | 472 kts | 70° |
| 2026-04-24 11:40 | 7.66304 | 81.50067 | 28617 ft | 474 kts | 71° |
| 2026-04-24 11:40 | 7.67473 | 81.53180 | 28885 ft | 476 kts | 71° |
| 2026-04-24 11:41 | 7.68648 | 81.56310 | 29158 ft | 478 kts | 71° |
| 2026-04-24 11:41 | 7.69826 | 81.59447 | 29427 ft | 480 kts | 71° |
| 2026-04-24 11:41 | 7.71011 | 81.62602 | 29679 ft | 482 kts | 71° |
| 2026-04-24 11:41 | 7.72198 | 81.65766 | 29913 ft | 484 kts | 71° |
| 2026-04-24 11:42 | 7.73396 | 81.68957 | 30016 ft | 489 kts | 71° |
| 2026-04-24 11:42 | 7.74601 | 81.72170 | 30226 ft | 490 kts | 71° |
| 2026-04-24 11:42 | 7.75806 | 81.75381 | 30507 ft | 490 kts | 71° |
| 2026-04-24 11:42 | 7.76995 | 81.78552 | 30780 ft | 490 kts | 71° |
| 2026-04-24 11:43 | 7.78201 | 81.81768 | 31045 ft | 491 kts | 71° |
| 2026-04-24 11:43 | 7.79409 | 81.84991 | 31293 ft | 492 kts | 71° |
| 2026-04-24 11:43 | 7.80619 | 81.88221 | 31537 ft | 492 kts | 71° |
| 2026-04-24 11:43 | 7.81830 | 81.91454 | 31792 ft | 493 kts | 71° |
| 2026-04-24 11:44 | 7.83042 | 81.94691 | 32042 ft | 494 kts | 71° |
| 2026-04-24 11:44 | 7.84256 | 81.97933 | 32292 ft | 495 kts | 71° |
| 2026-04-24 11:44 | 7.85472 | 82.01183 | 32545 ft | 495 kts | 71° |
| 2026-04-24 11:44 | 7.86689 | 82.04436 | 32801 ft | 496 kts | 71° |
| 2026-04-24 11:45 | 7.87907 | 82.07693 | 33055 ft | 497 kts | 71° |
| 2026-04-24 11:45 | 7.89127 | 82.10954 | 33305 ft | 497 kts | 70° |
| 2026-04-24 11:45 | 7.90347 | 82.14218 | 33549 ft | 498 kts | 70° |
| 2026-04-24 11:45 | 7.91568 | 82.17486 | 33806 ft | 498 kts | 70° |
| 2026-04-24 11:46 | 7.92790 | 82.20754 | 34030 ft | 498 kts | 70° |
| 2026-04-24 11:46 | 7.94011 | 82.24023 | 34269 ft | 498 kts | 71° |
| 2026-04-24 11:46 | 7.95231 | 82.27290 | 34525 ft | 497 kts | 71° |
| 2026-04-24 11:46 | 7.96448 | 82.30551 | 34794 ft | 497 kts | 71° |
| 2026-04-24 11:47 | 7.97663 | 82.33806 | 35045 ft | 496 kts | 71° |
| 2026-04-24 11:47 | 7.98878 | 82.37060 | 35276 ft | 495 kts | 71° |
| 2026-04-24 11:47 | 8.00090 | 82.40311 | 35528 ft | 495 kts | 71° |
| 2026-04-24 11:47 | 8.01299 | 82.43552 | 35842 ft | 492 kts | 71° |
| 2026-04-24 11:48 | 8.02504 | 82.46783 | 36084 ft | 492 kts | 71° |
| 2026-04-24 11:48 | 8.03708 | 82.50014 | 36282 ft | 492 kts | 71° |
| 2026-04-24 11:48 | 8.04914 | 82.53250 | 36487 ft | 493 kts | 71° |
| 2026-04-24 11:48 | 8.06117 | 82.56481 | 36706 ft | 493 kts | 71° |
| 2026-04-24 11:49 | 8.07322 | 82.59715 | 36907 ft | 492 kts | 71° |
| 2026-04-24 11:49 | 8.08527 | 82.62951 | 37127 ft | 492 kts | 71° |
| 2026-04-24 11:49 | 8.09730 | 82.66183 | 37334 ft | 492 kts | 72° |
| 2026-04-24 11:49 | 8.10933 | 82.69415 | 37537 ft | 492 kts | 72° |
| 2026-04-24 11:50 | 8.12134 | 82.72645 | 37741 ft | 492 kts | 72° |
| 2026-04-24 11:50 | 8.13336 | 82.75875 | 37937 ft | 492 kts | 72° |
| 2026-04-24 11:50 | 8.14536 | 82.79103 | 38130 ft | 491 kts | 71° |
| 2026-04-24 11:50 | 8.15736 | 82.82335 | 38298 ft | 492 kts | 71° |
| 2026-04-24 11:51 | 8.16937 | 82.85566 | 38478 ft | 492 kts | 71° |
| 2026-04-24 11:51 | 8.18139 | 82.88799 | 38624 ft | 492 kts | 71° |
| 2026-04-24 11:51 | 8.19339 | 82.92029 | 38772 ft | 492 kts | 71° |
| 2026-04-24 11:51 | 8.20541 | 82.95266 | 38814 ft | 492 kts | 71° |
| 2026-04-24 11:52 | 8.22939 | 83.01725 | 38816 ft | 490 kts | 71° |
| 2026-04-24 11:52 | 8.25329 | 83.08167 | 38816 ft | 490 kts | 71° |
| 2026-04-24 11:53 | 8.27718 | 83.14610 | 38824 ft | 490 kts | 71° |
| 2026-04-24 11:53 | 8.30106 | 83.21058 | 38815 ft | 491 kts | 71° |
| 2026-04-24 11:54 | 8.32489 | 83.27492 | 38816 ft | 494 kts | 71° |
| 2026-04-24 11:54 | 8.34895 | 83.33991 | 38819 ft | 494 kts | 71° |
| 2026-04-24 11:55 | 8.37299 | 83.40487 | 38818 ft | 494 kts | 71° |
| 2026-04-24 11:55 | 8.39701 | 83.46984 | 38832 ft | 494 kts | 71° |
| 2026-04-24 11:56 | 8.42103 | 83.53483 | 38807 ft | 494 kts | 71° |
| 2026-04-24 11:56 | 8.44498 | 83.59971 | 38811 ft | 492 kts | 71° |
| 2026-04-24 11:57 | 8.46886 | 83.66439 | 38821 ft | 491 kts | 71° |
| 2026-04-24 11:57 | 8.49270 | 83.72902 | 38819 ft | 491 kts | 71° |
| 2026-04-24 11:58 | 8.51654 | 83.79368 | 38826 ft | 491 kts | 71° |
| 2026-04-24 11:58 | 8.54037 | 83.85836 | 38821 ft | 491 kts | 71° |
| 2026-04-24 11:59 | 8.56419 | 83.92304 | 38823 ft | 491 kts | 71° |
| 2026-04-24 11:59 | 8.58793 | 83.98752 | 38828 ft | 488 kts | 71° |
| 2026-04-24 12:00 | 8.61153 | 84.05170 | 38828 ft | 487 kts | 71° |
| 2026-04-24 12:00 | 8.63514 | 84.11592 | 38826 ft | 487 kts | 71° |
| 2026-04-24 12:01 | 8.65873 | 84.18014 | 38826 ft | 487 kts | 71° |
| 2026-04-24 12:01 | 8.68231 | 84.24436 | 38826 ft | 488 kts | 71° |
| 2026-04-24 12:02 | 8.70597 | 84.30883 | 38822 ft | 490 kts | 71° |
| 2026-04-24 12:02 | 8.72947 | 84.37289 | 38818 ft | 489 kts | 71° |
| 2026-04-24 12:03 | 8.75307 | 84.43728 | 38824 ft | 488 kts | 71° |
| 2026-04-24 12:03 | 8.77666 | 84.50166 | 38828 ft | 488 kts | 71° |
| 2026-04-24 12:04 | 8.80023 | 84.56604 | 38825 ft | 488 kts | 71° |
| 2026-04-24 12:04 | 8.82378 | 84.63040 | 38826 ft | 488 kts | 71° |
| 2026-04-24 12:05 | 8.84733 | 84.69481 | 38818 ft | 488 kts | 71° |
| 2026-04-24 12:05 | 8.87078 | 84.75897 | 38823 ft | 486 kts | 71° |
| 2026-04-24 12:06 | 8.89391 | 84.82313 | 38833 ft | 485 kts | 72° |
| 2026-04-24 12:06 | 8.91608 | 84.88758 | 38833 ft | 485 kts | 72° |
| 2026-04-24 12:07 | 8.93801 | 84.95208 | 38822 ft | 485 kts | 72° |
| 2026-04-24 12:07 | 8.96001 | 85.01659 | 38830 ft | 485 kts | 72° |
| 2026-04-24 12:08 | 8.98206 | 85.08105 | 38829 ft | 485 kts | 72° |
| 2026-04-24 12:08 | 9.00410 | 85.14540 | 38831 ft | 483 kts | 72° |
| 2026-04-24 12:09 | 9.02608 | 85.20965 | 38830 ft | 483 kts | 72° |
| 2026-04-24 12:09 | 9.04804 | 85.27388 | 38829 ft | 483 kts | 72° |
| 2026-04-24 12:10 | 9.06999 | 85.33813 | 38833 ft | 484 kts | 72° |
| 2026-04-24 12:11 | 9.10306 | 85.43503 | 38830 ft | 486 kts | 71° |
| 2026-04-24 12:11 | 9.12511 | 85.49966 | 38834 ft | 485 kts | 71° |
| 2026-04-24 12:12 | 9.14708 | 85.56412 | 38831 ft | 485 kts | 71° |
| 2026-04-24 12:12 | 9.16905 | 85.62859 | 38829 ft | 485 kts | 71° |
| 2026-04-24 12:13 | 9.19100 | 85.69307 | 38830 ft | 485 kts | 71° |
| 2026-04-24 12:13 | 9.21293 | 85.75753 | 38833 ft | 484 kts | 71° |
| 2026-04-24 12:14 | 9.23484 | 85.82200 | 38840 ft | 484 kts | 71° |
| 2026-04-24 12:14 | 9.25684 | 85.88648 | 38834 ft | 484 kts | 71° |
| 2026-04-24 12:15 | 9.27935 | 85.95076 | 38833 ft | 484 kts | 71° |
| 2026-04-24 12:15 | 9.30202 | 86.01499 | 38840 ft | 484 kts | 71° |
| 2026-04-24 12:16 | 9.32464 | 86.07923 | 38839 ft | 484 kts | 71° |
| 2026-04-24 12:16 | 9.34721 | 86.14349 | 38839 ft | 484 kts | 71° |
| 2026-04-24 12:17 | 9.36973 | 86.20775 | 38835 ft | 484 kts | 71° |
| 2026-04-24 12:17 | 9.39225 | 86.27201 | 38836 ft | 484 kts | 71° |
| 2026-04-24 12:18 | 9.41460 | 86.33584 | 38841 ft | 484 kts | 71° |
| 2026-04-24 12:18 | 9.43708 | 86.40009 | 38838 ft | 484 kts | 71° |
| 2026-04-24 12:19 | 9.45959 | 86.46444 | 38842 ft | 486 kts | 71° |
| 2026-04-24 12:19 | 9.48219 | 86.52910 | 38840 ft | 488 kts | 71° |
| 2026-04-24 12:20 | 9.50481 | 86.59387 | 38841 ft | 487 kts | 71° |
| 2026-04-24 12:20 | 9.52737 | 86.65848 | 38842 ft | 486 kts | 71° |
| 2026-04-24 12:21 | 9.54988 | 86.72303 | 38841 ft | 486 kts | 71° |
| 2026-04-24 12:21 | 9.57239 | 86.78758 | 38841 ft | 486 kts | 71° |
| 2026-04-24 12:22 | 9.59488 | 86.85214 | 38842 ft | 486 kts | 71° |
| 2026-04-24 12:22 | 9.61735 | 86.91671 | 38844 ft | 486 kts | 71° |
| 2026-04-24 12:23 | 9.63982 | 86.98130 | 38840 ft | 486 kts | 71° |
| 2026-04-24 12:23 | 9.66230 | 87.04594 | 38844 ft | 486 kts | 71° |
| 2026-04-24 12:24 | 9.68097 | 87.09967 | 38845 ft | 487 kts | 71° |
| 2026-04-24 12:24 | 9.70344 | 87.16438 | 38847 ft | 486 kts | 71° |
| 2026-04-24 12:25 | 9.72589 | 87.22907 | 38844 ft | 486 kts | 71° |
| 2026-04-24 12:25 | 9.74831 | 87.29375 | 38847 ft | 486 kts | 71° |
| 2026-04-24 12:26 | 9.77082 | 87.35843 | 38846 ft | 486 kts | 70° |
| 2026-04-24 12:26 | 9.79446 | 87.42266 | 38848 ft | 486 kts | 69° |
| 2026-04-24 12:27 | 9.81854 | 87.48665 | 38847 ft | 486 kts | 69° |
| 2026-04-24 12:27 | 9.84258 | 87.55071 | 38849 ft | 487 kts | 69° |
| 2026-04-24 12:28 | 9.86657 | 87.61501 | 38846 ft | 488 kts | 69° |
| 2026-04-24 12:28 | 9.89054 | 87.67942 | 38848 ft | 488 kts | 69° |
| 2026-04-24 12:29 | 9.91447 | 87.74380 | 38847 ft | 487 kts | 69° |
| 2026-04-24 12:29 | 9.93834 | 87.80803 | 38849 ft | 486 kts | 69° |
| 2026-04-24 12:30 | 9.96215 | 87.87215 | 38851 ft | 486 kts | 69° |
| 2026-04-24 12:30 | 9.98597 | 87.93631 | 38851 ft | 486 kts | 69° |
| 2026-04-24 12:31 | 10.00977 | 88.00047 | 38851 ft | 486 kts | 69° |
| 2026-04-24 12:31 | 10.03340 | 88.06422 | 38852 ft | 486 kts | 69° |
| 2026-04-24 12:32 | 10.05717 | 88.12839 | 38848 ft | 485 kts | 69° |
| 2026-04-24 12:32 | 10.08084 | 88.19234 | 38855 ft | 484 kts | 69° |
| 2026-04-24 12:33 | 10.10448 | 88.25623 | 38853 ft | 484 kts | 69° |
| 2026-04-24 12:33 | 10.12810 | 88.32011 | 38852 ft | 484 kts | 69° |
| 2026-04-24 12:34 | 10.15172 | 88.38404 | 38853 ft | 484 kts | 69° |
| 2026-04-24 12:34 | 10.17532 | 88.44797 | 38853 ft | 484 kts | 69° |
| 2026-04-24 12:35 | 10.19889 | 88.51186 | 38855 ft | 483 kts | 69° |
| 2026-04-24 12:35 | 10.22245 | 88.57572 | 38854 ft | 484 kts | 69° |
| 2026-04-24 12:36 | 10.24606 | 88.63976 | 38855 ft | 485 kts | 69° |
| 2026-04-24 12:36 | 10.26968 | 88.70383 | 38856 ft | 485 kts | 69° |
| 2026-04-24 12:37 | 10.29328 | 88.76792 | 38857 ft | 484 kts | 69° |
| 2026-04-24 12:37 | 10.31686 | 88.83199 | 38859 ft | 484 kts | 69° |
| 2026-04-24 12:38 | 10.34039 | 88.89597 | 38860 ft | 483 kts | 69° |
| 2026-04-24 12:38 | 10.36383 | 88.95976 | 38859 ft | 482 kts | 69° |
| 2026-04-24 12:39 | 10.41065 | 89.08727 | 38857 ft | 482 kts | 69° |
| 2026-04-24 12:40 | 10.43404 | 89.15105 | 38862 ft | 482 kts | 69° |
| 2026-04-24 12:40 | 10.45741 | 89.21483 | 38862 ft | 482 kts | 69° |
| 2026-04-24 12:41 | 10.48076 | 89.27858 | 38861 ft | 481 kts | 69° |
| 2026-04-24 12:41 | 10.50402 | 89.34214 | 38861 ft | 480 kts | 69° |
| 2026-04-24 12:42 | 10.52725 | 89.40564 | 38858 ft | 479 kts | 69° |
| 2026-04-24 12:42 | 10.55031 | 89.46874 | 38859 ft | 479 kts | 69° |
| 2026-04-24 12:43 | 10.57351 | 89.53225 | 38864 ft | 479 kts | 69° |
| 2026-04-24 12:43 | 10.59675 | 89.59593 | 38860 ft | 482 kts | 69° |
| 2026-04-24 12:44 | 10.62008 | 89.65991 | 38856 ft | 483 kts | 69° |
| 2026-04-24 12:44 | 10.64342 | 89.72394 | 38859 ft | 483 kts | 69° |
| 2026-04-24 12:45 | 10.66672 | 89.78793 | 38861 ft | 483 kts | 69° |
| 2026-04-24 12:45 | 10.69003 | 89.85195 | 38859 ft | 483 kts | 69° |
| 2026-04-24 12:46 | 10.71332 | 89.91602 | 38859 ft | 483 kts | 69° |
| 2026-04-24 12:46 | 10.73660 | 89.98005 | 38859 ft | 483 kts | 70° |
| 2026-04-24 12:47 | 10.75931 | 90.04424 | 38859 ft | 481 kts | 71° |
| 2026-04-24 12:47 | 10.78125 | 90.10832 | 38860 ft | 479 kts | 71° |
| 2026-04-24 12:48 | 10.80311 | 90.17235 | 38860 ft | 479 kts | 71° |
| 2026-04-24 12:48 | 10.82504 | 90.23638 | 38862 ft | 479 kts | 71° |
| 2026-04-24 12:49 | 10.84701 | 90.30042 | 38862 ft | 479 kts | 71° |
| 2026-04-24 12:49 | 10.86898 | 90.36447 | 38863 ft | 479 kts | 71° |
| 2026-04-24 12:50 | 10.89090 | 90.42847 | 38862 ft | 478 kts | 71° |
| 2026-04-24 12:50 | 10.91272 | 90.49219 | 38862 ft | 477 kts | 71° |
| 2026-04-24 12:51 | 10.93451 | 90.55586 | 38862 ft | 476 kts | 71° |
| 2026-04-24 12:51 | 10.95630 | 90.61960 | 38860 ft | 478 kts | 71° |
| 2026-04-24 12:52 | 10.97816 | 90.68360 | 38861 ft | 479 kts | 71° |
| 2026-04-24 12:52 | 11.00003 | 90.74768 | 38863 ft | 479 kts | 71° |
| 2026-04-24 12:53 | 11.02187 | 90.81170 | 38860 ft | 478 kts | 71° |
| 2026-04-24 12:53 | 11.04362 | 90.87551 | 38863 ft | 477 kts | 71° |
| 2026-04-24 12:54 | 11.06533 | 90.93926 | 38860 ft | 477 kts | 71° |
| 2026-04-24 12:54 | 11.08688 | 91.00258 | 38857 ft | 476 kts | 71° |
| 2026-04-24 12:55 | 11.10856 | 91.06635 | 38860 ft | 476 kts | 71° |
| 2026-04-24 12:55 | 11.13023 | 91.13013 | 38858 ft | 477 kts | 71° |
| 2026-04-24 12:56 | 11.15188 | 91.19388 | 38860 ft | 475 kts | 71° |
| 2026-04-24 12:56 | 11.17340 | 91.25732 | 38855 ft | 473 kts | 71° |
| 2026-04-24 12:57 | 11.19488 | 91.32068 | 38855 ft | 473 kts | 71° |
| 2026-04-24 12:57 | 11.21636 | 91.38411 | 38855 ft | 474 kts | 71° |
| 2026-04-24 12:58 | 11.23783 | 91.44752 | 38852 ft | 474 kts | 71° |
| 2026-04-24 12:58 | 11.25928 | 91.51094 | 38854 ft | 474 kts | 71° |
| 2026-04-24 12:59 | 11.28073 | 91.57443 | 38854 ft | 473 kts | 71° |
| 2026-04-24 12:59 | 11.30211 | 91.63773 | 38853 ft | 472 kts | 71° |
| 2026-04-24 13:00 | 11.32348 | 91.70108 | 38854 ft | 473 kts | 71° |
| 2026-04-24 13:00 | 11.34492 | 91.76465 | 38862 ft | 475 kts | 71° |
| 2026-04-24 13:01 | 11.36595 | 91.82850 | 38858 ft | 475 kts | 72° |
| 2026-04-24 13:01 | 11.38575 | 91.89228 | 38858 ft | 475 kts | 72° |
| 2026-04-24 13:02 | 11.40547 | 91.95651 | 38855 ft | 474 kts | 72° |
| 2026-04-24 13:02 | 11.42522 | 92.02055 | 38852 ft | 473 kts | 72° |
| 2026-04-24 13:03 | 11.44502 | 92.08453 | 38853 ft | 473 kts | 72° |
| 2026-04-24 13:03 | 11.46484 | 92.14854 | 38847 ft | 473 kts | 72° |
| 2026-04-24 13:04 | 11.48465 | 92.21254 | 38849 ft | 473 kts | 72° |
| 2026-04-24 13:04 | 11.50443 | 92.27656 | 38849 ft | 473 kts | 72° |
| 2026-04-24 13:05 | 11.52421 | 92.34059 | 38838 ft | 474 kts | 73° |
| 2026-04-24 13:05 | 11.54399 | 92.40471 | 38835 ft | 474 kts | 73° |
| 2026-04-24 13:06 | 11.56376 | 92.46885 | 38832 ft | 474 kts | 73° |
| 2026-04-24 13:06 | 11.58350 | 92.53296 | 38833 ft | 474 kts | 73° |
| 2026-04-24 13:07 | 11.60324 | 92.59712 | 38825 ft | 474 kts | 73° |
| 2026-04-24 13:07 | 11.62297 | 92.66128 | 38826 ft | 474 kts | 73° |
| 2026-04-24 13:08 | 11.64265 | 92.72530 | 38824 ft | 472 kts | 72° |
| 2026-04-24 13:08 | 11.66735 | 92.78715 | 38827 ft | 470 kts | 67° |
| 2026-04-24 13:09 | 11.70799 | 92.87828 | 38835 ft | 471 kts | 66° |
| 2026-04-24 13:09 | 11.73540 | 92.93893 | 38862 ft | 471 kts | 66° |
| 2026-04-24 13:10 | 11.76254 | 92.99925 | 38848 ft | 471 kts | 66° |
| 2026-04-24 13:10 | 11.78979 | 93.06001 | 38866 ft | 471 kts | 66° |
| 2026-04-24 13:11 | 11.81693 | 93.12061 | 38860 ft | 468 kts | 66° |
| 2026-04-24 13:11 | 11.83938 | 93.17077 | 38850 ft | 467 kts | 66° |
| 2026-04-24 13:12 | 11.87090 | 93.24124 | 38863 ft | 467 kts | 66° |
| 2026-04-24 13:12 | 11.89332 | 93.29139 | 38846 ft | 467 kts | 66° |
| 2026-04-24 13:13 | 11.92028 | 93.35173 | 38861 ft | 467 kts | 66° |
| 2026-04-24 13:13 | 11.94724 | 93.41211 | 38845 ft | 467 kts | 66° |
| 2026-04-24 13:14 | 11.97417 | 93.47249 | 38858 ft | 467 kts | 66° |
| 2026-04-24 13:14 | 12.00109 | 93.53285 | 38858 ft | 467 kts | 66° |
| 2026-04-24 13:15 | 12.02801 | 93.59327 | 38851 ft | 468 kts | 66° |
| 2026-04-24 13:15 | 12.05502 | 93.65394 | 38863 ft | 470 kts | 66° |
| 2026-04-24 13:16 | 12.08212 | 93.71484 | 38849 ft | 471 kts | 66° |
| 2026-04-24 13:16 | 12.10921 | 93.77577 | 38863 ft | 471 kts | 66° |
| 2026-04-24 13:17 | 12.13627 | 93.83667 | 38848 ft | 470 kts | 66° |
| 2026-04-24 13:17 | 12.16324 | 93.89740 | 38858 ft | 468 kts | 66° |
| 2026-04-24 13:18 | 12.19014 | 93.95803 | 38846 ft | 468 kts | 66° |
| 2026-04-24 13:18 | 12.21702 | 94.01865 | 38857 ft | 468 kts | 66° |
| 2026-04-24 13:19 | 12.24410 | 94.07920 | 38844 ft | 468 kts | 66° |
| 2026-04-24 13:19 | 12.27137 | 94.13969 | 38844 ft | 468 kts | 66° |
| 2026-04-24 13:20 | 12.29863 | 94.20017 | 38859 ft | 468 kts | 66° |
| 2026-04-24 13:20 | 12.32581 | 94.26057 | 38845 ft | 467 kts | 66° |
| 2026-04-24 13:21 | 12.35291 | 94.32088 | 38860 ft | 466 kts | 66° |
| 2026-04-24 13:21 | 12.37998 | 94.38116 | 38858 ft | 467 kts | 66° |
| 2026-04-24 13:22 | 12.40704 | 94.44134 | 38847 ft | 470 kts | 66° |
| 2026-04-24 13:22 | 12.43454 | 94.50208 | 38860 ft | 471 kts | 66° |
| 2026-04-24 13:23 | 12.46208 | 94.56283 | 38848 ft | 471 kts | 66° |
| 2026-04-24 13:23 | 12.48956 | 94.62354 | 38861 ft | 469 kts | 66° |
| 2026-04-24 13:24 | 12.51693 | 94.68408 | 38858 ft | 468 kts | 66° |
| 2026-04-24 13:24 | 12.54424 | 94.74455 | 38840 ft | 468 kts | 66° |
| 2026-04-24 13:25 | 12.57154 | 94.80503 | 38842 ft | 468 kts | 66° |
| 2026-04-24 13:25 | 12.59885 | 94.86556 | 38841 ft | 468 kts | 66° |
| 2026-04-24 13:26 | 12.62613 | 94.92610 | 38856 ft | 468 kts | 66° |
| 2026-04-24 13:26 | 12.65340 | 94.98663 | 38857 ft | 468 kts | 66° |
| 2026-04-24 13:27 | 12.68059 | 95.04705 | 38838 ft | 467 kts | 66° |
| 2026-04-24 13:27 | 12.70774 | 95.10741 | 38854 ft | 467 kts | 66° |
| 2026-04-24 13:28 | 12.73489 | 95.16780 | 38841 ft | 468 kts | 66° |
| 2026-04-24 13:28 | 12.76217 | 95.22856 | 38855 ft | 470 kts | 66° |
| 2026-04-24 13:29 | 12.78952 | 95.28951 | 38857 ft | 471 kts | 66° |
| 2026-04-24 13:29 | 12.81686 | 95.35045 | 38837 ft | 471 kts | 66° |
| 2026-04-24 13:30 | 12.84414 | 95.41134 | 38855 ft | 470 kts | 66° |
| 2026-04-24 13:30 | 12.87002 | 95.47265 | 38839 ft | 468 kts | 73° |
| 2026-04-24 13:31 | 12.88638 | 95.53719 | 38842 ft | 468 kts | 77° |
| 2026-04-24 13:31 | 12.90026 | 95.60240 | 38843 ft | 468 kts | 79° |
| 2026-04-24 13:32 | 12.91355 | 95.66728 | 38853 ft | 468 kts | 79° |
| 2026-04-24 13:32 | 12.92703 | 95.73259 | 38839 ft | 468 kts | 78° |
| 2026-04-24 13:33 | 12.94059 | 95.79771 | 38846 ft | 467 kts | 78° |
| 2026-04-24 13:33 | 12.95416 | 95.86272 | 38843 ft | 466 kts | 78° |
| 2026-04-24 13:34 | 12.96772 | 95.92772 | 38845 ft | 466 kts | 78° |
| 2026-04-24 13:34 | 12.98126 | 95.99278 | 38849 ft | 466 kts | 78° |
| 2026-04-24 13:35 | 12.99478 | 96.05781 | 38847 ft | 466 kts | 78° |
| 2026-04-24 13:35 | 13.00828 | 96.12285 | 38839 ft | 466 kts | 79° |
| 2026-04-24 13:36 | 13.02177 | 96.18794 | 38848 ft | 467 kts | 78° |
| 2026-04-24 13:36 | 13.03525 | 96.25305 | 38845 ft | 467 kts | 79° |
| 2026-04-24 13:37 | 13.04871 | 96.31819 | 38845 ft | 467 kts | 79° |
| 2026-04-24 13:37 | 13.06216 | 96.38331 | 38840 ft | 467 kts | 78° |
| 2026-04-24 13:38 | 13.07562 | 96.44862 | 38844 ft | 469 kts | 78° |
| 2026-04-24 13:38 | 13.08909 | 96.51401 | 38842 ft | 469 kts | 78° |
| 2026-04-24 13:39 | 13.10255 | 96.57944 | 38847 ft | 469 kts | 78° |
| 2026-04-24 13:39 | 13.11599 | 96.64489 | 38845 ft | 469 kts | 79° |
| 2026-04-24 13:40 | 13.12942 | 96.71035 | 38839 ft | 469 kts | 79° |
| 2026-04-24 13:40 | 13.14282 | 96.77582 | 38843 ft | 469 kts | 79° |
| 2026-04-24 13:41 | 13.15622 | 96.84130 | 38845 ft | 469 kts | 79° |
| 2026-04-24 13:41 | 13.16960 | 96.90679 | 38842 ft | 469 kts | 79° |
| 2026-04-24 13:42 | 13.18297 | 96.97238 | 38840 ft | 470 kts | 79° |
| 2026-04-24 13:42 | 13.19634 | 97.03800 | 38838 ft | 470 kts | 79° |
| 2026-04-24 13:43 | 13.20969 | 97.10362 | 38838 ft | 470 kts | 79° |
| 2026-04-24 13:43 | 13.22302 | 97.16923 | 38849 ft | 470 kts | 79° |
| 2026-04-24 13:44 | 13.23633 | 97.23484 | 38840 ft | 470 kts | 79° |
| 2026-04-24 13:44 | 13.24963 | 97.30051 | 38844 ft | 470 kts | 79° |
| 2026-04-24 13:45 | 13.26292 | 97.36618 | 38847 ft | 470 kts | 79° |
| 2026-04-24 13:45 | 13.27618 | 97.43182 | 38845 ft | 470 kts | 79° |
| 2026-04-24 13:46 | 13.28943 | 97.49748 | 38843 ft | 470 kts | 79° |
| 2026-04-24 13:46 | 13.30258 | 97.56272 | 38846 ft | 470 kts | 79° |
| 2026-04-24 13:47 | 13.31579 | 97.62839 | 38844 ft | 470 kts | 79° |
| 2026-04-24 13:47 | 13.32901 | 97.69417 | 38847 ft | 471 kts | 79° |
| 2026-04-24 13:48 | 13.34222 | 97.75999 | 38847 ft | 471 kts | 79° |
| 2026-04-24 13:48 | 13.35541 | 97.82581 | 38849 ft | 471 kts | 79° |
| 2026-04-24 13:49 | 13.36857 | 97.89162 | 38853 ft | 471 kts | 79° |
| 2026-04-24 13:49 | 13.38175 | 97.95756 | 38847 ft | 473 kts | 79° |
| 2026-04-24 13:50 | 13.39497 | 98.02381 | 38852 ft | 473 kts | 79° |
| 2026-04-24 13:50 | 13.40815 | 98.08995 | 38853 ft | 472 kts | 79° |
| 2026-04-24 13:51 | 13.42130 | 98.15602 | 38852 ft | 472 kts | 79° |
| 2026-04-24 13:51 | 13.43443 | 98.22212 | 38855 ft | 472 kts | 79° |
| 2026-04-24 13:52 | 13.44755 | 98.28822 | 38858 ft | 472 kts | 79° |
| 2026-04-24 13:52 | 13.46066 | 98.35433 | 38866 ft | 472 kts | 78° |
| 2026-04-24 13:53 | 13.47375 | 98.42052 | 38866 ft | 474 kts | 78° |
| 2026-04-24 13:53 | 13.48687 | 98.48687 | 38862 ft | 474 kts | 78° |
| 2026-04-24 13:54 | 13.49997 | 98.55323 | 38887 ft | 474 kts | 78° |
| 2026-04-24 13:54 | 13.51303 | 98.61958 | 38886 ft | 474 kts | 78° |
| 2026-04-24 13:55 | 13.52607 | 98.68594 | 38896 ft | 474 kts | 78° |
| 2026-04-24 13:55 | 13.53908 | 98.75227 | 38900 ft | 473 kts | 78° |
| 2026-04-24 13:56 | 13.55208 | 98.81858 | 38900 ft | 473 kts | 78° |
| 2026-04-24 13:56 | 13.56495 | 98.88435 | 38905 ft | 473 kts | 78° |
| 2026-04-24 13:57 | 13.57789 | 98.95057 | 38902 ft | 473 kts | 78° |
| 2026-04-24 13:57 | 13.59083 | 99.01686 | 38908 ft | 473 kts | 78° |
| 2026-04-24 13:58 | 13.60373 | 99.08309 | 38903 ft | 473 kts | 78° |
| 2026-04-24 13:58 | 13.61454 | 99.13868 | 38895 ft | 474 kts | 78° |
| 2026-04-24 13:59 | 13.62749 | 99.20527 | 38890 ft | 476 kts | 78° |
| 2026-04-24 13:59 | 13.64044 | 99.27195 | 38877 ft | 476 kts | 78° |
| 2026-04-24 14:00 | 13.65328 | 99.33815 | 38884 ft | 475 kts | 78° |
| 2026-04-24 14:00 | 13.66619 | 99.40483 | 38870 ft | 476 kts | 78° |
| 2026-04-24 14:01 | 13.67909 | 99.47152 | 38870 ft | 476 kts | 78° |
| 2026-04-24 14:01 | 13.69200 | 99.53839 | 38860 ft | 478 kts | 78° |
| 2026-04-24 14:02 | 13.70493 | 99.60546 | 38853 ft | 478 kts | 78° |
| 2026-04-24 14:02 | 13.71785 | 99.67260 | 38853 ft | 478 kts | 78° |
| 2026-04-24 14:03 | 13.73075 | 99.73970 | 38860 ft | 478 kts | 79° |
| 2026-04-24 14:03 | 13.74362 | 99.80678 | 38863 ft | 478 kts | 79° |
| 2026-04-24 14:04 | 13.75647 | 99.87385 | 38847 ft | 478 kts | 79° |
| 2026-04-24 14:04 | 13.76932 | 99.94101 | 38860 ft | 478 kts | 79° |
| 2026-04-24 14:05 | 13.78213 | 100.00813 | 38859 ft | 478 kts | 79° |
| 2026-04-24 14:05 | 13.79497 | 100.07543 | 38852 ft | 481 kts | 79° |
| 2026-04-24 14:06 | 13.80784 | 100.14302 | 38847 ft | 481 kts | 79° |
| 2026-04-24 14:06 | 13.82068 | 100.21061 | 38865 ft | 481 kts | 79° |
| 2026-04-24 14:07 | 13.83349 | 100.27809 | 38860 ft | 480 kts | 79° |
| 2026-04-24 14:07 | 13.84625 | 100.34543 | 38848 ft | 479 kts | 79° |
| 2026-04-24 14:08 | 13.85900 | 100.41280 | 38854 ft | 479 kts | 79° |
| 2026-04-24 14:08 | 13.87172 | 100.48011 | 38862 ft | 479 kts | 79° |
| 2026-04-24 14:09 | 13.88555 | 100.54717 | 38859 ft | 479 kts | 73° |
| 2026-04-24 14:09 | 13.91354 | 100.60843 | 38849 ft | 477 kts | 54° |
| 2026-04-24 14:10 | 13.95783 | 100.65895 | 38863 ft | 476 kts | 43° |
| 2026-04-24 14:10 | 14.00627 | 100.70554 | 38868 ft | 477 kts | 42° |
| 2026-04-24 14:11 | 14.05535 | 100.75166 | 38852 ft | 478 kts | 42° |
| 2026-04-24 14:12 | 14.12857 | 100.82135 | 38856 ft | 478 kts | 42° |
| 2026-04-24 14:12 | 14.17722 | 100.86806 | 38873 ft | 478 kts | 42° |
| 2026-04-24 14:13 | 14.22581 | 100.91479 | 38866 ft | 478 kts | 42° |
| 2026-04-24 14:13 | 14.27442 | 100.96156 | 38869 ft | 478 kts | 42° |
| 2026-04-24 14:14 | 14.32301 | 101.00831 | 38871 ft | 478 kts | 42° |
| 2026-04-24 14:14 | 14.39612 | 101.07871 | 38894 ft | 480 kts | 42° |
| 2026-04-24 14:15 | 14.44492 | 101.12575 | 38891 ft | 480 kts | 42° |
| 2026-04-24 14:15 | 14.49346 | 101.17315 | 38892 ft | 480 kts | 46° |
| 2026-04-24 14:16 | 14.53196 | 101.22922 | 38908 ft | 481 kts | 62° |
| 2026-04-24 14:17 | 14.57396 | 101.32331 | 38919 ft | 482 kts | 66° |
| 2026-04-24 14:17 | 14.61340 | 101.41815 | 38908 ft | 481 kts | 66° |
| 2026-04-24 14:18 | 14.64007 | 101.48160 | 38926 ft | 481 kts | 66° |
| 2026-04-24 14:18 | 14.66685 | 101.54496 | 38915 ft | 482 kts | 66° |
| 2026-04-24 14:19 | 14.69377 | 101.60858 | 38923 ft | 484 kts | 66° |
| 2026-04-24 14:19 | 14.72069 | 101.67232 | 38924 ft | 484 kts | 66° |
| 2026-04-24 14:20 | 14.74759 | 101.73606 | 38928 ft | 484 kts | 66° |
| 2026-04-24 14:20 | 14.77446 | 101.79979 | 38922 ft | 484 kts | 66° |
| 2026-04-24 14:21 | 14.80131 | 101.86357 | 38925 ft | 484 kts | 66° |
| 2026-04-24 14:21 | 14.82814 | 101.92733 | 38921 ft | 484 kts | 66° |
| 2026-04-24 14:22 | 14.85495 | 101.99110 | 38921 ft | 484 kts | 66° |
| 2026-04-24 14:23 | 14.89514 | 102.08681 | 38920 ft | 484 kts | 66° |
| 2026-04-24 14:23 | 14.92572 | 102.14859 | 38916 ft | 482 kts | 54° |
| 2026-04-24 14:24 | 14.96503 | 102.20480 | 38885 ft | 482 kts | 52° |
| 2026-04-24 14:24 | 15.00595 | 102.25982 | 38883 ft | 483 kts | 51° |
| 2026-04-24 14:25 | 15.04683 | 102.31433 | 38884 ft | 483 kts | 51° |
| 2026-04-24 14:25 | 15.08783 | 102.36932 | 38889 ft | 483 kts | 51° |
| 2026-04-24 14:26 | 15.12898 | 102.42479 | 38900 ft | 483 kts | 51° |
| 2026-04-24 14:26 | 15.16959 | 102.47967 | 38903 ft | 484 kts | 51° |
| 2026-04-24 14:27 | 15.21048 | 102.53500 | 38909 ft | 484 kts | 51° |
| 2026-04-24 14:27 | 15.25134 | 102.59036 | 38914 ft | 484 kts | 51° |
| 2026-04-24 14:28 | 15.29220 | 102.64574 | 38911 ft | 484 kts | 51° |
| 2026-04-24 14:28 | 15.33311 | 102.70122 | 38908 ft | 485 kts | 51° |
| 2026-04-24 14:29 | 15.37407 | 102.75681 | 38913 ft | 486 kts | 51° |
| 2026-04-24 14:29 | 15.41504 | 102.81247 | 38908 ft | 485 kts | 51° |
| 2026-04-24 14:30 | 15.44901 | 102.85863 | 38905 ft | 484 kts | 51° |
| 2026-04-24 14:30 | 15.49676 | 102.92357 | 38908 ft | 484 kts | 51° |
| 2026-04-24 14:31 | 15.53758 | 102.97914 | 38902 ft | 484 kts | 51° |
| 2026-04-24 14:31 | 15.57840 | 103.03474 | 38907 ft | 484 kts | 51° |
| 2026-04-24 14:32 | 15.61919 | 103.09034 | 38904 ft | 485 kts | 51° |
| 2026-04-24 14:32 | 15.66001 | 103.14603 | 38902 ft | 485 kts | 51° |
| 2026-04-24 14:33 | 15.70058 | 103.20142 | 38905 ft | 485 kts | 51° |
| 2026-04-24 14:33 | 15.74169 | 103.25758 | 38901 ft | 486 kts | 51° |
| 2026-04-24 14:34 | 15.78226 | 103.31306 | 38901 ft | 486 kts | 51° |
| 2026-04-24 14:34 | 15.82308 | 103.36891 | 38899 ft | 485 kts | 51° |
| 2026-04-24 14:35 | 15.86389 | 103.42477 | 38900 ft | 485 kts | 51° |
| 2026-04-24 14:35 | 15.90469 | 103.48066 | 38900 ft | 485 kts | 51° |
| 2026-04-24 14:36 | 15.94551 | 103.53661 | 38905 ft | 486 kts | 51° |
| 2026-04-24 14:36 | 15.98639 | 103.59270 | 38906 ft | 487 kts | 51° |
| 2026-04-24 14:37 | 16.02729 | 103.64885 | 38909 ft | 487 kts | 51° |
| 2026-04-24 14:37 | 16.06815 | 103.70500 | 38911 ft | 487 kts | 51° |
| 2026-04-24 14:38 | 16.10851 | 103.76165 | 38908 ft | 488 kts | 56° |
| 2026-04-24 14:38 | 16.14056 | 103.82407 | 38912 ft | 490 kts | 62° |
| 2026-04-24 14:39 | 16.16981 | 103.88817 | 38913 ft | 491 kts | 63° |
| 2026-04-24 14:39 | 16.19851 | 103.95266 | 38912 ft | 491 kts | 63° |
| 2026-04-24 14:40 | 16.22727 | 104.01711 | 38911 ft | 491 kts | 63° |
| 2026-04-24 14:40 | 16.25622 | 104.08168 | 38914 ft | 494 kts | 63° |
| 2026-04-24 14:41 | 16.28533 | 104.14652 | 38912 ft | 495 kts | 63° |
| 2026-04-24 14:41 | 16.31442 | 104.21137 | 38920 ft | 495 kts | 63° |
| 2026-04-24 14:42 | 16.33858 | 104.26532 | 38919 ft | 494 kts | 63° |
| 2026-04-24 14:42 | 16.37246 | 104.34102 | 38920 ft | 493 kts | 63° |
| 2026-04-24 14:43 | 16.40124 | 104.40541 | 38922 ft | 494 kts | 63° |
| 2026-04-24 14:43 | 16.43018 | 104.47020 | 38925 ft | 494 kts | 63° |
| 2026-04-24 14:44 | 16.45913 | 104.53509 | 38922 ft | 494 kts | 63° |
| 2026-04-24 14:44 | 16.48803 | 104.59993 | 38922 ft | 494 kts | 63° |
| 2026-04-24 14:45 | 16.51692 | 104.66481 | 38921 ft | 494 kts | 63° |
| 2026-04-24 14:45 | 16.54587 | 104.72990 | 38927 ft | 497 kts | 63° |
| 2026-04-24 14:46 | 16.57897 | 104.79323 | 38926 ft | 498 kts | 56° |
| 2026-04-24 14:46 | 16.61586 | 104.85429 | 38928 ft | 498 kts | 55° |
| 2026-04-24 14:47 | 16.64708 | 104.90472 | 38921 ft | 498 kts | 55° |
| 2026-04-24 14:47 | 16.68465 | 104.96535 | 38921 ft | 497 kts | 55° |
| 2026-04-24 14:48 | 16.72209 | 105.02601 | 38917 ft | 497 kts | 55° |
| 2026-04-24 14:48 | 16.75944 | 105.08673 | 38925 ft | 497 kts | 55° |
| 2026-04-24 14:49 | 16.79676 | 105.14748 | 38928 ft | 497 kts | 55° |
| 2026-04-24 14:49 | 16.83406 | 105.20826 | 38938 ft | 498 kts | 55° |
| 2026-04-24 14:50 | 16.87148 | 105.26928 | 38928 ft | 500 kts | 55° |
| 2026-04-24 14:50 | 16.90894 | 105.33050 | 38928 ft | 500 kts | 55° |
| 2026-04-24 14:51 | 16.94629 | 105.39163 | 38935 ft | 499 kts | 55° |
| 2026-04-24 14:51 | 16.98359 | 105.45272 | 38935 ft | 499 kts | 55° |
| 2026-04-24 14:52 | 17.02089 | 105.51386 | 38949 ft | 499 kts | 55° |
| 2026-04-24 14:52 | 17.05816 | 105.57500 | 38941 ft | 499 kts | 55° |
| 2026-04-24 14:53 | 17.09545 | 105.63622 | 38946 ft | 499 kts | 55° |
| 2026-04-24 14:53 | 17.13267 | 105.69740 | 38969 ft | 498 kts | 54° |
| 2026-04-24 14:54 | 17.16981 | 105.75849 | 38963 ft | 498 kts | 54° |
| 2026-04-24 14:54 | 17.20668 | 105.81918 | 38965 ft | 498 kts | 54° |
| 2026-04-24 14:55 | 17.24379 | 105.88032 | 38982 ft | 498 kts | 54° |
| 2026-04-24 14:55 | 17.28086 | 105.94147 | 38992 ft | 498 kts | 54° |
| 2026-04-24 14:56 | 17.31792 | 106.00263 | 39000 ft | 498 kts | 54° |
| 2026-04-24 14:56 | 17.35494 | 106.06380 | 38996 ft | 497 kts | 54° |
| 2026-04-24 14:57 | 17.39211 | 106.12474 | 39004 ft | 496 kts | 54° |
| 2026-04-24 14:57 | 17.42960 | 106.18549 | 39007 ft | 497 kts | 54° |
| 2026-04-24 14:58 | 17.46719 | 106.24637 | 39008 ft | 498 kts | 54° |
| 2026-04-24 14:58 | 17.50476 | 106.30734 | 39012 ft | 498 kts | 54° |
| 2026-04-24 14:59 | 17.54231 | 106.36839 | 38999 ft | 498 kts | 54° |
| 2026-04-24 14:59 | 17.57964 | 106.42919 | 39003 ft | 494 kts | 54° |
| 2026-04-24 15:00 | 17.61675 | 106.48969 | 38992 ft | 493 kts | 54° |
| 2026-04-24 15:00 | 17.65385 | 106.55021 | 38998 ft | 493 kts | 54° |
| 2026-04-24 15:01 | 17.69092 | 106.61075 | 38989 ft | 493 kts | 54° |
| 2026-04-24 15:01 | 17.72793 | 106.67140 | 38994 ft | 494 kts | 54° |
| 2026-04-24 15:02 | 17.76499 | 106.73224 | 38986 ft | 496 kts | 54° |
| 2026-04-24 15:02 | 17.80208 | 106.79320 | 38989 ft | 496 kts | 54° |
| 2026-04-24 15:03 | 17.83894 | 106.85382 | 38990 ft | 496 kts | 54° |
| 2026-04-24 15:03 | 17.87601 | 106.91485 | 38993 ft | 496 kts | 55° |
| 2026-04-24 15:04 | 17.91315 | 106.97582 | 38992 ft | 496 kts | 54° |
| 2026-04-24 15:04 | 17.95038 | 107.03673 | 38988 ft | 496 kts | 54° |
| 2026-04-24 15:05 | 17.98757 | 107.09763 | 38984 ft | 495 kts | 55° |
| 2026-04-24 15:05 | 18.02465 | 107.15843 | 38995 ft | 494 kts | 55° |
| 2026-04-24 15:06 | 18.06167 | 107.21922 | 38991 ft | 494 kts | 55° |
| 2026-04-24 15:06 | 18.09861 | 107.27998 | 38989 ft | 494 kts | 55° |
| 2026-04-24 15:07 | 18.13554 | 107.34083 | 38991 ft | 494 kts | 55° |
| 2026-04-24 15:07 | 18.17244 | 107.40170 | 38987 ft | 494 kts | 56° |
| 2026-04-24 15:08 | 18.20932 | 107.46255 | 38987 ft | 493 kts | 56° |
| 2026-04-24 15:08 | 18.24608 | 107.52330 | 38994 ft | 492 kts | 56° |
| 2026-04-24 15:09 | 18.28281 | 107.58406 | 38989 ft | 492 kts | 56° |
| 2026-04-24 15:09 | 18.31969 | 107.64509 | 38986 ft | 498 kts | 56° |
| 2026-04-24 15:10 | 18.36006 | 107.70435 | 38985 ft | 499 kts | 49° |
| 2026-04-24 15:10 | 18.40385 | 107.76098 | 38986 ft | 498 kts | 49° |
| 2026-04-24 15:11 | 18.44816 | 107.81704 | 38995 ft | 498 kts | 48° |
| 2026-04-24 15:11 | 18.49247 | 107.87309 | 38984 ft | 498 kts | 49° |
| 2026-04-24 15:12 | 18.53667 | 107.92923 | 38993 ft | 498 kts | 49° |
| 2026-04-24 15:12 | 18.60290 | 108.01359 | 38992 ft | 499 kts | 48° |
| 2026-04-24 15:13 | 18.64704 | 108.06986 | 38990 ft | 502 kts | 48° |
| 2026-04-24 15:13 | 18.69158 | 108.12670 | 38991 ft | 503 kts | 48° |
| 2026-04-24 15:14 | 18.73610 | 108.18358 | 38987 ft | 503 kts | 48° |
| 2026-04-24 15:14 | 18.78059 | 108.24048 | 38985 ft | 503 kts | 48° |
| 2026-04-24 15:15 | 18.82505 | 108.29738 | 38988 ft | 503 kts | 48° |
| 2026-04-24 15:15 | 18.86953 | 108.35435 | 39003 ft | 503 kts | 47° |
| 2026-04-24 15:16 | 18.91405 | 108.41142 | 38985 ft | 505 kts | 47° |
| 2026-04-24 15:16 | 18.95872 | 108.46874 | 38982 ft | 506 kts | 48° |
| 2026-04-24 15:17 | 19.00342 | 108.52615 | 38985 ft | 506 kts | 48° |
| 2026-04-24 15:17 | 19.04812 | 108.58364 | 38985 ft | 506 kts | 48° |
| 2026-04-24 15:18 | 19.09283 | 108.64117 | 38985 ft | 506 kts | 48° |
| 2026-04-24 15:18 | 19.13752 | 108.69873 | 38987 ft | 506 kts | 48° |
| 2026-04-24 15:19 | 19.18221 | 108.75637 | 38991 ft | 508 kts | 47° |
| 2026-04-24 15:19 | 19.22708 | 108.81425 | 38990 ft | 510 kts | 47° |
| 2026-04-24 15:20 | 19.27205 | 108.87234 | 38993 ft | 510 kts | 47° |
| 2026-04-24 15:20 | 19.31701 | 108.93046 | 38993 ft | 510 kts | 47° |
| 2026-04-24 15:21 | 19.36166 | 108.98824 | 39002 ft | 510 kts | 47° |
| 2026-04-24 15:21 | 19.40660 | 109.04643 | 39001 ft | 510 kts | 47° |
| 2026-04-24 15:22 | 19.45183 | 109.10507 | 39010 ft | 511 kts | 47° |
| 2026-04-24 15:23 | 19.51903 | 109.19231 | 39003 ft | 512 kts | 47° |
| 2026-04-24 15:23 | 19.58626 | 109.28047 | 39011 ft | 512 kts | 48° |
| 2026-04-24 15:25 | 19.69045 | 109.41775 | 39011 ft | 512 kts | 48° |
| 2026-04-24 15:26 | 19.80995 | 109.57542 | 39009 ft | 515 kts | 48° |
| 2026-04-24 15:27 | 19.94437 | 109.75331 | 39009 ft | 514 kts | 48° |
| 2026-04-24 15:29 | 20.07885 | 109.93178 | 39009 ft | 517 kts | 48° |
| 2026-04-24 15:31 | 20.22843 | 110.13098 | 39014 ft | 517 kts | 48° |
| 2026-04-24 15:33 | 20.41712 | 110.37978 | 39009 ft | 520 kts | 47° |
| 2026-04-24 15:34 | 20.51477 | 110.52662 | 39011 ft | 525 kts | 65° |
| 2026-04-24 15:35 | 20.55365 | 110.63603 | 38502 ft | 527 kts | 69° |
| 2026-04-24 15:35 | 20.57803 | 110.71005 | 37811 ft | 530 kts | 69° |
| 2026-04-24 15:35 | 20.59013 | 110.74666 | 37467 ft | 531 kts | 69° |
| 2026-04-24 15:36 | 20.60248 | 110.78377 | 37142 ft | 531 kts | 69° |
| 2026-04-24 15:36 | 20.62734 | 110.85807 | 36471 ft | 531 kts | 69° |
| 2026-04-24 15:36 | 20.63980 | 110.89521 | 36157 ft | 532 kts | 68° |
| 2026-04-24 15:37 | 20.65230 | 110.93234 | 35847 ft | 532 kts | 68° |
| 2026-04-24 15:37 | 20.66486 | 110.96951 | 35532 ft | 532 kts | 68° |
| 2026-04-24 15:37 | 20.67746 | 111.00672 | 35217 ft | 533 kts | 68° |
| 2026-04-24 15:37 | 20.69008 | 111.04397 | 35046 ft | 534 kts | 68° |
| 2026-04-24 15:38 | 20.71529 | 111.11857 | 35017 ft | 534 kts | 68° |
| 2026-04-24 15:38 | 20.74045 | 111.19318 | 35024 ft | 534 kts | 68° |
| 2026-04-24 15:39 | 20.76555 | 111.26781 | 35015 ft | 534 kts | 68° |
| 2026-04-24 15:39 | 20.79062 | 111.34244 | 35018 ft | 534 kts | 68° |
| 2026-04-24 15:40 | 20.81566 | 111.41714 | 35023 ft | 534 kts | 68° |
| 2026-04-24 15:40 | 20.84067 | 111.49182 | 35024 ft | 534 kts | 68° |
| 2026-04-24 15:41 | 20.86582 | 111.56651 | 34905 ft | 534 kts | 68° |
| 2026-04-24 15:41 | 20.87844 | 111.60381 | 34643 ft | 534 kts | 68° |
| 2026-04-24 15:41 | 20.89107 | 111.64115 | 34430 ft | 534 kts | 68° |
| 2026-04-24 15:42 | 20.90371 | 111.67856 | 34264 ft | 535 kts | 68° |
| 2026-04-24 15:42 | 20.91635 | 111.71599 | 34061 ft | 535 kts | 68° |
| 2026-04-24 15:42 | 20.92897 | 111.75344 | 33798 ft | 536 kts | 68° |
| 2026-04-24 15:42 | 20.94161 | 111.79098 | 33543 ft | 536 kts | 68° |
| 2026-04-24 15:43 | 20.95425 | 111.82854 | 33278 ft | 537 kts | 68° |
| 2026-04-24 15:43 | 20.96689 | 111.86614 | 33028 ft | 537 kts | 68° |
| 2026-04-24 15:43 | 20.97952 | 111.90376 | 32788 ft | 538 kts | 68° |
| 2026-04-24 15:43 | 20.99217 | 111.94148 | 32597 ft | 539 kts | 68° |
| 2026-04-24 15:44 | 21.00483 | 111.97925 | 32377 ft | 540 kts | 68° |
| 2026-04-24 15:44 | 21.01751 | 112.01710 | 32154 ft | 541 kts | 68° |
| 2026-04-24 15:44 | 21.03019 | 112.05500 | 31935 ft | 541 kts | 68° |
| 2026-04-24 15:44 | 21.04290 | 112.09299 | 31715 ft | 542 kts | 68° |
| 2026-04-24 15:45 | 21.05559 | 112.13100 | 31493 ft | 543 kts | 68° |
| 2026-04-24 15:45 | 21.06829 | 112.16902 | 31279 ft | 542 kts | 69° |
| 2026-04-24 15:45 | 21.08098 | 112.20707 | 31065 ft | 542 kts | 69° |
| 2026-04-24 15:45 | 21.09365 | 112.24509 | 30859 ft | 542 kts | 69° |
| 2026-04-24 15:46 | 21.10629 | 112.28307 | 30654 ft | 541 kts | 69° |
| 2026-04-24 15:46 | 21.11889 | 112.32094 | 30450 ft | 539 kts | 69° |
| 2026-04-24 15:46 | 21.13144 | 112.35871 | 30233 ft | 537 kts | 69° |
| 2026-04-24 15:46 | 21.14394 | 112.39636 | 30041 ft | 536 kts | 69° |
| 2026-04-24 15:47 | 21.15639 | 112.43387 | 29785 ft | 534 kts | 69° |
| 2026-04-24 15:47 | 21.16879 | 112.47127 | 29528 ft | 532 kts | 70° |
| 2026-04-24 15:47 | 21.18112 | 112.50850 | 29306 ft | 529 kts | 70° |
| 2026-04-24 15:47 | 21.19324 | 112.54508 | 29069 ft | 526 kts | 70° |
| 2026-04-24 15:48 | 21.20544 | 112.58196 | 28856 ft | 525 kts | 69° |
| 2026-04-24 15:48 | 21.21762 | 112.61878 | 28623 ft | 524 kts | 69° |
| 2026-04-24 15:48 | 21.22977 | 112.65559 | 28394 ft | 523 kts | 70° |
| 2026-04-24 15:48 | 21.24188 | 112.69227 | 28166 ft | 521 kts | 70° |
| 2026-04-24 15:49 | 21.25394 | 112.72886 | 27934 ft | 519 kts | 70° |
| 2026-04-24 15:49 | 21.26593 | 112.76528 | 27716 ft | 517 kts | 70° |
| 2026-04-24 15:49 | 21.27789 | 112.80159 | 27491 ft | 515 kts | 70° |
| 2026-04-24 15:49 | 21.28977 | 112.83771 | 27273 ft | 512 kts | 70° |
| 2026-04-24 15:50 | 21.30158 | 112.87365 | 27041 ft | 510 kts | 70° |
| 2026-04-24 15:50 | 21.31331 | 112.90939 | 26833 ft | 508 kts | 70° |
| 2026-04-24 15:50 | 21.32501 | 112.94505 | 26614 ft | 506 kts | 70° |
| 2026-04-24 15:50 | 21.33664 | 112.98053 | 26390 ft | 504 kts | 71° |
| 2026-04-24 15:51 | 21.34823 | 113.01589 | 26174 ft | 502 kts | 71° |
| 2026-04-24 15:51 | 21.35977 | 113.05115 | 25870 ft | 500 kts | 71° |
| 2026-04-24 15:51 | 21.37124 | 113.08621 | 25534 ft | 497 kts | 71° |
| 2026-04-24 15:51 | 21.38266 | 113.12114 | 25051 ft | 494 kts | 71° |
| 2026-04-24 15:52 | 21.39394 | 113.15567 | 24585 ft | 487 kts | 71° |
| 2026-04-24 15:52 | 21.40502 | 113.18960 | 24037 ft | 475 kts | 71° |
| 2026-04-24 15:52 | 21.41583 | 113.22274 | 23493 ft | 471 kts | 71° |
| 2026-04-24 15:52 | 21.42673 | 113.25619 | 22851 ft | 477 kts | 71° |
| 2026-04-24 15:53 | 21.43764 | 113.28972 | 22206 ft | 475 kts | 71° |
| 2026-04-24 15:53 | 21.44847 | 113.32304 | 21585 ft | 471 kts | 71° |
| 2026-04-24 15:53 | 21.45919 | 113.35604 | 20976 ft | 466 kts | 70° |
| 2026-04-24 15:53 | 21.47151 | 113.38793 | 20375 ft | 458 kts | 59° |
| 2026-04-24 15:54 | 21.48988 | 113.41492 | 19793 ft | 438 kts | 45° |
| 2026-04-24 15:54 | 21.51056 | 113.43781 | 19255 ft | 417 kts | 41° |
| 2026-04-24 15:54 | 21.53161 | 113.45814 | 18705 ft | 399 kts | 34° |
| 2026-04-24 15:54 | 21.55424 | 113.47466 | 18131 ft | 390 kts | 28° |
| 2026-04-24 15:55 | 21.57734 | 113.48966 | 17493 ft | 387 kts | 27° |
| 2026-04-24 15:55 | 21.60046 | 113.50440 | 16883 ft | 386 kts | 27° |
| 2026-04-24 15:55 | 21.62355 | 113.51901 | 16343 ft | 384 kts | 27° |
| 2026-04-24 15:55 | 21.64653 | 113.53346 | 15806 ft | 381 kts | 27° |
| 2026-04-24 15:56 | 21.66916 | 113.54762 | 15294 ft | 370 kts | 27° |
| 2026-04-24 15:56 | 21.69082 | 113.56118 | 14793 ft | 362 kts | 27° |
| 2026-04-24 15:56 | 21.71258 | 113.57465 | 14290 ft | 360 kts | 24° |
| 2026-04-24 15:56 | 21.73497 | 113.58660 | 13790 ft | 359 kts | 22° |
| 2026-04-24 15:57 | 21.75723 | 113.59818 | 13219 ft | 351 kts | 22° |
| 2026-04-24 15:57 | 21.77916 | 113.60944 | 12602 ft | 349 kts | 22° |
| 2026-04-24 15:57 | 21.80110 | 113.62061 | 11982 ft | 349 kts | 23° |
| 2026-04-24 15:57 | 21.82295 | 113.63169 | 11373 ft | 343 kts | 23° |
| 2026-04-24 15:58 | 21.84410 | 113.64242 | 10850 ft | 329 kts | 24° |
| 2026-04-24 15:58 | 21.86440 | 113.65271 | 10344 ft | 316 kts | 24° |
| 2026-04-24 15:58 | 21.88401 | 113.66264 | 9845 ft | 308 kts | 24° |
| 2026-04-24 15:58 | 21.90329 | 113.67240 | 9286 ft | 305 kts | 24° |
| 2026-04-24 15:59 | 21.92251 | 113.68213 | 8752 ft | 306 kts | 24° |
| 2026-04-24 15:59 | 21.94161 | 113.69179 | 8204 ft | 299 kts | 24° |
| 2026-04-24 15:59 | 21.96021 | 113.70123 | 7680 ft | 292 kts | 23° |
| 2026-04-24 15:59 | 21.97833 | 113.71041 | 7164 ft | 285 kts | 23° |
| 2026-04-24 16:00 | 21.99606 | 113.71939 | 6645 ft | 279 kts | 23° |
| 2026-04-24 16:00 | 22.01347 | 113.72822 | 6131 ft | 274 kts | 23° |
| 2026-04-24 16:00 | 22.03058 | 113.73689 | 5614 ft | 268 kts | 23° |
| 2026-04-24 16:00 | 22.04717 | 113.74531 | 5360 ft | 261 kts | 23° |
| 2026-04-24 16:01 | 22.06349 | 113.75358 | 5123 ft | 255 kts | 23° |
| 2026-04-24 16:01 | 22.07933 | 113.76162 | 4849 ft | 249 kts | 23° |
| 2026-04-24 16:01 | 22.09503 | 113.76900 | 4503 ft | 241 kts | 16° |
| 2026-04-24 16:01 | 22.11106 | 113.77122 | 4150 ft | 227 kts | 351° |
| 2026-04-24 16:02 | 22.12573 | 113.76657 | 3823 ft | 216 kts | 335° |
| 2026-04-24 16:02 | 22.13930 | 113.76009 | 3556 ft | 210 kts | 333° |
| 2026-04-24 16:02 | 22.15226 | 113.75352 | 3430 ft | 202 kts | 333° |
| 2026-04-24 16:02 | 22.16474 | 113.74719 | 3323 ft | 196 kts | 333° |
| 2026-04-24 16:03 | 22.17702 | 113.74098 | 3196 ft | 195 kts | 333° |
| 2026-04-24 16:03 | 22.18933 | 113.73479 | 3069 ft | 195 kts | 334° |
| 2026-04-24 16:03 | 22.20168 | 113.72875 | 2933 ft | 194 kts | 338° |
| 2026-04-24 16:03 | 22.21484 | 113.72657 | 2807 ft | 191 kts | 9° |
| 2026-04-24 16:04 | 22.22682 | 113.73172 | 2724 ft | 183 kts | 31° |
| 2026-04-24 16:04 | 22.23759 | 113.73903 | 2613 ft | 183 kts | 35° |
| 2026-04-24 16:04 | 22.24814 | 113.74664 | 2379 ft | 183 kts | 35° |
| 2026-04-24 16:04 | 22.25872 | 113.75443 | 2105 ft | 186 kts | 41° |
| 2026-04-24 16:05 | 22.27223 | 113.77746 | 1992 ft | 183 kts | 72° |
| 2026-04-24 16:05 | 22.27626 | 113.79035 | 1991 ft | 177 kts | 72° |
| 2026-04-24 16:06 | 22.28412 | 113.81462 | 1642 ft | 161 kts | 72° |
| 2026-04-24 16:06 | 22.28771 | 113.82578 | 1404 ft | 154 kts | 72° |
| 2026-04-24 16:06 | 22.29437 | 113.84653 | 1012 ft | 136 kts | 71° |
| 2026-04-24 16:07 | 22.29736 | 113.85583 | 853 ft | 129 kts | 71° |
| 2026-04-24 16:07 | 22.30031 | 113.86500 | 699 ft | 129 kts | 70° |
| 2026-04-24 16:07 | 22.30616 | 113.88322 | 370 ft | 128 kts | 70° |
| 2026-04-24 16:08 | 22.30910 | 113.89232 | 182 ft | 127 kts | 71° |
| 2026-04-24 16:08 | 22.31450 | 113.90916 | 35 ft | 96 kts | 71° |
| 2026-04-24 16:09 | 22.31649 | 113.91710 | 36 ft | 22 kts | 96° |
| 2026-04-24 16:09 | 22.31640 | 113.91763 | 36 ft | 1 kts | 99° |
| 2026-04-24 16:09 | 22.31639 | 113.91768 | 36 ft | 0 kts | 99° |
| 2026-04-24 16:09 | 22.31638 | 113.91773 | 36 ft | 3 kts | 100° |
| 2026-04-24 16:10 | 22.31510 | 113.92063 | 36 ft | 19 kts | 160° |
| 2026-04-24 16:11 | 22.31335 | 113.92302 | 36 ft | 16 kts | 116° |
| 2026-04-24 16:11 | 22.31298 | 113.92383 | 36 ft | 8 kts | 116° |
| 2026-04-24 16:11 | 22.31290 | 113.92414 | 36 ft | 4 kts | 88° |
| 2026-04-24 16:12 | 22.31328 | 113.92457 | 36 ft | 5 kts | 28° |
| 2026-04-24 16:12 | 22.31345 | 113.92466 | 36 ft | 2 kts | 26° |
| 2026-04-24 16:12 | 22.31356 | 113.92472 | 36 ft | 0 kts | 26° |